Time;durP1;ratioP1;P1;durP2;ratioP2;P2;SDS_P1;SDS_P2;PMS_P1;PMS_P2;Temp;Humidity;BMP_temperature;BMP_pressure;BME280_temperature;BME280_humidity;BME280_pressure;Samples;Min_cycle;Max_cycle;Signal;HPM_P1;HPM_P2
2023/01/17 00:01:39;;;;;;;59.72;46.50;;;;;;;;;;5058970;28;20351;-75
2023/01/17 00:12:17;;;;;;;145.93;98.28;;;;;;;;;;5049704;28;20035;-75
2023/01/17 00:14:42;;;;;;;118.82;82.95;;;;;;;;;;5060331;28;20100;-76
2023/01/17 00:17:08;;;;;;;121.78;83.13;;;;;;;;;;5057848;28;20103;-74
2023/01/17 01:34:06;;;;;;;117.80;91.53;;;;;;;;;;5054581;28;20101;-74
2023/01/17 01:36:31;;;;;;;104.57;77.70;;;;;;;;;;5062929;28;20032;-75
2023/01/17 01:38:56;;;;;;;108.90;79.13;;;;;;;;;;5052622;28;20020;-73
2023/01/17 01:41:22;;;;;;;99.88;74.72;;;;;;;;;;5063854;28;20153;-74
2023/01/17 01:43:47;;;;;;;77.95;60.33;;;;;;;;;;5057885;28;20468;-75
2023/01/17 01:46:17;;;;;;;57.97;45.45;;;;;;;;;;5060012;28;20345;-74
2023/01/17 01:48:52;;;;;;;46.88;36.50;;;;;;;;;;5057732;28;20054;-74
2023/01/17 01:51:41;;;;;;;47.58;37.75;;;;;;;;;;5058825;28;20029;-75
2023/01/17 01:54:09;;;;;;;46.85;38.88;;;;;;;;;;5061026;28;20043;-74
2023/01/17 01:56:35;;;;;;;51.45;41.20;;;;;;;;;;5064751;28;20141;-74
2023/01/17 01:59:03;;;;;;;53.08;42.40;;;;;;;;;;5064820;28;20103;-75
2023/01/17 02:01:29;;;;;;;43.00;35.65;;;;;;;;;;5064069;28;20100;-74
2023/01/17 02:03:54;;;;;;;46.83;36.50;;;;;;;;;;5055526;28;20047;-73
2023/01/17 02:06:25;;;;;;;48.58;40.17;;;;;;;;;;5055247;28;20050;-74
2023/01/17 02:08:51;;;;;;;41.67;32.88;;;;;;;;;;5056362;28;20171;-75
2023/01/17 02:11:16;;;;;;;58.95;46.22;;;;;;;;;;5060569;28;20119;-73
2023/01/17 02:13:42;;;;;;;68.35;53.38;;;;;;;;;;5064045;28;21301;-73
2023/01/17 02:16:16;;;;;;;71.57;56.33;;;;;;;;;;5061275;28;20043;-75
2023/01/17 02:18:47;;;;;;;66.57;55.53;;;;;;;;;;5060957;28;20029;-75
2023/01/17 02:21:45;;;;;;;61.70;47.47;;;;;;;;;;5053506;28;20039;-74
2023/01/17 02:24:38;;;;;;;53.47;43.65;;;;;;;;;;5052302;28;20044;-74
2023/01/17 02:27:06;;;;;;;54.55;43.72;;;;;;;;;;5063947;28;20143;-75
2023/01/17 02:29:37;;;;;;;47.67;38.72;;;;;;;;;;5063863;28;20064;-76
2023/01/17 02:32:21;;;;;;;51.25;40.58;;;;;;;;;;5063106;28;20073;-75
2023/01/17 02:34:52;;;;;;;68.60;50.83;;;;;;;;;;5064058;28;20047;-74
2023/01/17 02:37:47;;;;;;;59.35;43.72;;;;;;;;;;5055724;28;20032;-73
2023/01/17 02:40:15;;;;;;;63.92;48.60;;;;;;;;;;5037065;28;20071;-73
2023/01/17 02:42:44;;;;;;;62.55;48.17;;;;;;;;;;5040882;28;20152;-75
2023/01/17 02:45:13;;;;;;;68.22;52.13;;;;;;;;;;5038423;28;20036;-72
2023/01/17 02:47:39;;;;;;;69.30;52.47;;;;;;;;;;5040240;28;20041;-73
2023/01/17 02:50:10;;;;;;;65.68;49.97;;;;;;;;;;5040613;28;20364;-73
2023/01/17 02:52:44;;;;;;;75.90;54.47;;;;;;;;;;5033931;28;20052;-73
2023/01/17 02:55:21;;;;;;;71.53;53.55;;;;;;;;;;5033517;28;20041;-74
2023/01/17 02:57:50;;;;;;;65.88;50.58;;;;;;;;;;5040854;28;20164;-72
2023/01/17 03:00:27;;;;;;;66.80;51.30;;;;;;;;;;5039508;28;20512;-74
2023/01/17 03:03:01;;;;;;;71.55;54.78;;;;;;;;;;5038710;28;20049;-73
2023/01/17 03:05:49;;;;;;;67.20;51.03;;;;;;;;;;5038517;28;20068;-73
2023/01/17 03:08:14;;;;;;;60.80;45.05;;;;;;;;;;5031037;28;20497;-73
2023/01/17 03:10:40;;;;;;;56.40;45.22;;;;;;;;;;5039551;28;20075;-73
2023/01/17 03:13:05;;;;;;;59.08;46.35;;;;;;;;;;5031615;28;20028;-75
2023/01/17 03:15:31;;;;;;;58.15;45.38;;;;;;;;;;5028236;28;20112;-72
2023/01/17 03:17:59;;;;;;;58.88;46.03;;;;;;;;;;5052526;28;20121;-72
2023/01/17 03:20:25;;;;;;;106.07;71.03;;;;;;;;;;5056943;28;20460;-74
2023/01/17 03:22:50;;;;;;;77.45;53.78;;;;;;;;;;5062867;28;20051;-74
2023/01/17 03:25:16;;;;;;;71.68;55.17;;;;;;;;;;5061890;28;21220;-73
2023/01/17 03:27:41;;;;;;;66.72;54.65;;;;;;;;;;5060915;28;20032;-74
2023/01/17 03:30:07;;;;;;;51.92;40.38;;;;;;;;;;5062864;28;20451;-73
2023/01/17 03:32:32;;;;;;;52.38;40.58;;;;;;;;;;5048671;28;20025;-76
2023/01/17 03:34:57;;;;;;;48.90;37.03;;;;;;;;;;5062449;28;20071;-73
2023/01/17 03:37:23;;;;;;;51.95;41.35;;;;;;;;;;5062557;28;20074;-73
2023/01/17 03:39:48;;;;;;;56.08;43.58;;;;;;;;;;5061032;28;20109;-76
2023/01/17 03:42:13;;;;;;;54.58;43.53;;;;;;;;;;5061259;28;20119;-73
2023/01/17 03:44:39;;;;;;;70.45;53.30;;;;;;;;;;5051014;28;20332;-73
2023/01/17 03:47:04;;;;;;;65.65;51.88;;;;;;;;;;5055407;28;20032;-73
2023/01/17 03:49:30;;;;;;;94.15;72.22;;;;;;;;;;5053111;28;20346;-73
2023/01/17 03:51:55;;;;;;;80.57;59.42;;;;;;;;;;5063052;28;20032;-73
2023/01/17 03:54:20;;;;;;;68.18;50.55;;;;;;;;;;5062724;28;20055;-74
2023/01/17 03:56:46;;;;;;;74.80;55.63;;;;;;;;;;5061820;28;20051;-74
2023/01/17 03:59:11;;;;;;;64.35;49.03;;;;;;;;;;5062309;28;20032;-74
2023/01/17 04:01:36;;;;;;;58.95;44.97;;;;;;;;;;5061501;28;20073;-76
2023/01/17 04:04:01;;;;;;;57.47;44.88;;;;;;;;;;5049308;28;20108;-74
2023/01/17 04:06:27;;;;;;;52.08;42.50;;;;;;;;;;5061408;28;20365;-74
2023/01/17 04:08:52;;;;;;;55.63;43.42;;;;;;;;;;5061972;28;20461;-74
2023/01/17 04:11:17;;;;;;;53.42;44.45;;;;;;;;;;5061733;28;20900;-74
2023/01/17 04:13:43;;;;;;;56.78;44.78;;;;;;;;;;5061368;28;20447;-74
2023/01/17 04:16:11;;;;;;;47.95;39.17;;;;;;;;;;5053470;28;20392;-74
2023/01/17 04:18:36;;;;;;;51.63;38.60;;;;;;;;;;5056880;28;20028;-75
2023/01/17 04:21:01;;;;;;;50.20;40.33;;;;;;;;;;5061934;28;20028;-75
2023/01/17 04:23:27;;;;;;;76.85;56.88;;;;;;;;;;5060654;28;20036;-74
2023/01/17 04:25:52;;;;;;;54.38;43.28;;;;;;;;;;5061039;28;20033;-74
2023/01/17 04:28:17;;;;;;;55.92;41.25;;;;;;;;;;5059158;28;20267;-74
2023/01/17 04:30:42;;;;;;;61.63;44.83;;;;;;;;;;5053865;28;20089;-74
2023/01/17 04:33:08;;;;;;;52.08;39.22;;;;;;;;;;5062734;28;20480;-74
2023/01/17 04:35:33;;;;;;;53.00;41.78;;;;;;;;;;5063702;28;20089;-74
2023/01/17 04:37:59;;;;;;;47.08;38.75;;;;;;;;;;5061654;28;20073;-74
2023/01/17 04:40:25;;;;;;;44.30;35.78;;;;;;;;;;5060450;28;20043;-74
2023/01/17 04:42:50;;;;;;;47.47;37.45;;;;;;;;;;5060631;28;20051;-75
2023/01/17 04:45:16;;;;;;;46.03;36.45;;;;;;;;;;5062113;28;20036;-74
2023/01/17 04:47:41;;;;;;;48.10;38.53;;;;;;;;;;5050128;28;20028;-76
2023/01/17 04:50:07;;;;;;;45.33;35.72;;;;;;;;;;5054510;28;20133;-75
2023/01/17 04:52:32;;;;;;;50.47;40.33;;;;;;;;;;5046940;28;20035;-74
2023/01/17 04:54:58;;;;;;;56.47;44.08;;;;;;;;;;5056310;28;20029;-73
2023/01/17 04:57:23;;;;;;;62.20;48.38;;;;;;;;;;5050504;28;20044;-74
2023/01/17 04:59:49;;;;;;;79.53;57.88;;;;;;;;;;5052917;28;20039;-75
2023/01/17 05:02:17;;;;;;;93.53;72.32;;;;;;;;;;5052218;28;20170;-74
2023/01/17 05:04:43;;;;;;;88.20;64.20;;;;;;;;;;5054457;28;20032;-74
2023/01/17 05:07:08;;;;;;;86.90;66.25;;;;;;;;;;5065848;28;20368;-74
2023/01/17 05:09:33;;;;;;;90.55;71.03;;;;;;;;;;5063327;28;20095;-74
2023/01/17 05:11:59;;;;;;;91.10;68.35;;;;;;;;;;5064174;28;20032;-73
2023/01/17 05:14:25;;;;;;;85.60;61.83;;;;;;;;;;5065733;28;20033;-72
2023/01/17 05:16:53;;;;;;;99.43;81.68;;;;;;;;;;5064643;28;20016;-74
2023/01/17 05:19:18;;;;;;;356.20;247.55;;;;;;;;;;5064273;28;20024;-71
2023/01/17 05:21:44;;;;;;;363.88;245.70;;;;;;;;;;5054566;28;20103;-72
2023/01/17 05:24:09;;;;;;;387.92;246.73;;;;;;;;;;5062722;28;20310;-71
2023/01/17 05:26:34;;;;;;;585.38;346.02;;;;;;;;;;5064929;28;20032;-74
2023/01/17 05:28:59;;;;;;;280.45;166.90;;;;;;;;;;5063163;28;20027;-74
2023/01/17 05:31:25;;;;;;;341.88;210.40;;;;;;;;;;5064532;28;20031;-73
2023/01/17 05:33:50;;;;;;;275.80;180.27;;;;;;;;;;5054435;28;20077;-74
2023/01/17 05:36:15;;;;;;;216.32;156.48;;;;;;;;;;5054766;28;20135;-74
2023/01/17 05:38:41;;;;;;;237.57;173.25;;;;;;;;;;5058909;28;20021;-73
2023/01/17 05:41:06;;;;;;;234.05;172.43;;;;;;;;;;5056244;28;20056;-73
2023/01/17 05:43:31;;;;;;;204.25;154.93;;;;;;;;;;5058825;28;20036;-73
2023/01/17 05:45:56;;;;;;;255.63;192.10;;;;;;;;;;5050480;28;20040;-75
2023/01/17 05:48:22;;;;;;;106.47;81.07;;;;;;;;;;5061342;28;20055;-73
2023/01/17 05:50:47;;;;;;;89.63;63.72;;;;;;;;;;5063834;28;20013;-72
2023/01/17 05:53:14;;;;;;;64.65;51.40;;;;;;;;;;5064010;28;20028;-72
2023/01/17 05:55:40;;;;;;;68.05;51.42;;;;;;;;;;5062770;28;20089;-73
2023/01/17 05:58:06;;;;;;;60.08;47.47;;;;;;;;;;5064839;28;20111;-75
2023/01/17 06:00:31;;;;;;;147.55;107.45;;;;;;;;;;5064017;28;20453;-72
2023/01/17 06:02:57;;;;;;;115.13;84.45;;;;;;;;;;5063638;28;20128;-76
2023/01/17 06:05:23;;;;;;;123.28;97.63;;;;;;;;;;5062191;28;20036;-71
2023/01/17 06:07:48;;;;;;;100.70;80.50;;;;;;;;;;5063308;28;20024;-73
2023/01/17 06:10:14;;;;;;;85.82;69.00;;;;;;;;;;5062555;28;20099;-71
2023/01/17 06:12:43;;;;;;;66.43;52.88;;;;;;;;;;5063627;28;20025;-72
2023/01/17 06:15:09;;;;;;;63.42;51.22;;;;;;;;;;5062752;28;20128;-74
2023/01/17 06:17:35;;;;;;;66.70;54.53;;;;;;;;;;5062261;28;20024;-72
2023/01/17 06:20:00;;;;;;;66.45;52.10;;;;;;;;;;5065203;28;20039;-74
2023/01/17 06:22:25;;;;;;;160.32;133.45;;;;;;;;;;5063364;28;20023;-72
2023/01/17 06:24:51;;;;;;;81.53;63.72;;;;;;;;;;5062454;28;20028;-73
2023/01/17 06:27:16;;;;;;;82.18;63.03;;;;;;;;;;5065375;28;20032;-72
2023/01/17 06:29:41;;;;;;;87.88;66.18;;;;;;;;;;5063256;28;20059;-71
2023/01/17 06:32:07;;;;;;;81.82;65.80;;;;;;;;;;5063645;28;20660;-73
2023/01/17 06:34:32;;;;;;;92.13;71.57;;;;;;;;;;5063689;28;20047;-72
2023/01/17 06:36:57;;;;;;;100.93;76.93;;;;;;;;;;5054693;28;20303;-73
2023/01/17 06:39:23;;;;;;;327.25;233.55;;;;;;;;;;5061987;28;20215;-72
2023/01/17 06:41:48;;;;;;;190.45;136.35;;;;;;;;;;5063362;28;20176;-77
2023/01/17 06:44:13;;;;;;;184.82;133.00;;;;;;;;;;5065157;28;20101;-73
2023/01/17 06:46:39;;;;;;;138.82;103.13;;;;;;;;;;5063065;28;20035;-73
2023/01/17 06:49:05;;;;;;;108.70;83.15;;;;;;;;;;5064125;28;20024;-71
2023/01/17 06:51:30;;;;;;;118.18;93.60;;;;;;;;;;5062113;28;20398;-76
2023/01/17 06:53:55;;;;;;;103.97;83.70;;;;;;;;;;5064719;28;20047;-71
2023/01/17 06:56:21;;;;;;;123.43;97.40;;;;;;;;;;5063047;28;20384;-70
2023/01/17 06:58:50;;;;;;;124.28;100.78;;;;;;;;;;5061720;28;20101;-72
2023/01/17 07:01:15;;;;;;;116.80;97.70;;;;;;;;;;5063639;28;20035;-72
2023/01/17 07:03:40;;;;;;;77.63;62.83;;;;;;;;;;5062461;28;20024;-73
2023/01/17 07:06:08;;;;;;;85.47;69.28;;;;;;;;;;5062385;28;20043;-73
2023/01/17 07:08:33;;;;;;;81.85;64.68;;;;;;;;;;5060878;28;20090;-74
2023/01/17 07:11:00;;;;;;;131.57;104.15;;;;;;;;;;5060818;28;20861;-70
2023/01/17 07:13:26;;;;;;;112.85;88.55;;;;;;;;;;5061831;28;20085;-70
2023/01/17 07:15:51;;;;;;;124.50;96.68;;;;;;;;;;5063930;28;20036;-70
2023/01/17 07:18:22;;;;;;;124.68;91.50;;;;;;;;;;5063666;28;20364;-69
2023/01/17 07:20:50;;;;;;;113.03;89.55;;;;;;;;;;5063443;28;20305;-69
2023/01/17 07:23:16;;;;;;;134.00;102.00;;;;;;;;;;5050506;28;20139;-69
2023/01/17 07:25:41;;;;;;;131.95;108.10;;;;;;;;;;5062427;28;20126;-71
2023/01/17 07:28:07;;;;;;;128.82;102.18;;;;;;;;;;5062559;28;20162;-70
2023/01/17 07:30:32;;;;;;;128.80;99.25;;;;;;;;;;5059567;28;20035;-70
2023/01/17 07:32:58;;;;;;;115.30;88.10;;;;;;;;;;5048922;28;20133;-70
2023/01/17 07:35:26;;;;;;;129.43;91.68;;;;;;;;;;5048568;28;20448;-74
2023/01/17 07:37:52;;;;;;;124.22;82.72;;;;;;;;;;5047533;28;20386;-74
2023/01/17 07:40:18;;;;;;;125.10;82.43;;;;;;;;;;5050684;28;20423;-70
2023/01/17 07:42:44;;;;;;;120.80;75.63;;;;;;;;;;5047894;28;20089;-70
2023/01/17 07:45:10;;;;;;;140.45;87.45;;;;;;;;;;5048036;28;20044;-71
2023/01/17 07:47:37;;;;;;;151.02;93.85;;;;;;;;;;5047387;28;20102;-69
2023/01/17 07:50:03;;;;;;;131.85;81.63;;;;;;;;;;5048815;28;20016;-71
2023/01/17 07:52:28;;;;;;;140.93;87.53;;;;;;;;;;5047525;28;20077;-73
2023/01/17 07:54:53;;;;;;;179.40;101.47;;;;;;;;;;5049385;28;20063;-73
2023/01/17 07:57:19;;;;;;;120.45;78.70;;;;;;;;;;5048233;28;20336;-72
2023/01/17 07:59:44;;;;;;;173.00;95.82;;;;;;;;;;5048926;28;20112;-72
2023/01/17 08:02:16;;;;;;;119.28;77.75;;;;;;;;;;5048834;28;20115;-75
2023/01/17 08:04:41;;;;;;;187.95;125.22;;;;;;;;;;5046306;28;20451;-72
2023/01/17 08:07:07;;;;;;;127.22;88.00;;;;;;;;;;5048554;28;20047;-73
2023/01/17 08:09:32;;;;;;;173.55;115.40;;;;;;;;;;5047423;28;20114;-72
2023/01/17 08:11:57;;;;;;;154.80;116.32;;;;;;;;;;5048489;28;20130;-72
2023/01/17 08:14:22;;;;;;;257.60;183.05;;;;;;;;;;5046267;28;20146;-73
2023/01/17 08:16:48;;;;;;;218.35;154.93;;;;;;;;;;5048899;28;20036;-71
2023/01/17 08:19:14;;;;;;;152.82;116.47;;;;;;;;;;5047496;28;20044;-74
2023/01/17 08:21:39;;;;;;;125.25;97.00;;;;;;;;;;5047406;28;20023;-74
2023/01/17 08:24:04;;;;;;;133.88;103.95;;;;;;;;;;5047230;28;20104;-73
2023/01/17 08:26:30;;;;;;;136.00;98.85;;;;;;;;;;5046843;28;20032;-71
2023/01/17 08:28:59;;;;;;;137.95;100.40;;;;;;;;;;5051858;28;20036;-74
2023/01/17 08:31:24;;;;;;;114.95;78.80;;;;;;;;;;5051013;28;20035;-74
2023/01/17 08:33:49;;;;;;;142.88;92.50;;;;;;;;;;5057636;28;20033;-73
2023/01/17 08:36:15;;;;;;;113.60;85.32;;;;;;;;;;5052955;28;20020;-75
2023/01/17 08:38:40;;;;;;;179.90;140.60;;;;;;;;;;5058973;28;20071;-74
2023/01/17 08:41:05;;;;;;;155.15;117.88;;;;;;;;;;5050066;28;20039;-73
2023/01/17 08:43:31;;;;;;;141.88;106.25;;;;;;;;;;5049639;28;20032;-72
2023/01/17 08:45:56;;;;;;;243.75;183.65;;;;;;;;;;5058204;28;20035;-72
2023/01/17 08:48:22;;;;;;;222.57;176.18;;;;;;;;;;5053683;28;20482;-71
2023/01/17 08:50:48;;;;;;;322.88;238.38;;;;;;;;;;5056258;28;20049;-73
2023/01/17 08:53:14;;;;;;;582.90;382.40;;;;;;;;;;5063212;28;20020;-73
2023/01/17 08:55:39;;;;;;;270.48;185.40;;;;;;;;;;5063808;28;20090;-75
2023/01/17 08:58:05;;;;;;;112.32;78.80;;;;;;;;;;5064667;28;20150;-73
2023/01/17 09:00:31;;;;;;;122.63;86.88;;;;;;;;;;5064367;28;20032;-73
2023/01/17 09:02:56;;;;;;;139.50;96.95;;;;;;;;;;5064700;28;20103;-71
2023/01/17 09:05:22;;;;;;;105.80;72.68;;;;;;;;;;5063984;28;20035;-71
2023/01/17 09:07:47;;;;;;;111.30;76.80;;;;;;;;;;5064193;28;20333;-74
2023/01/17 09:10:12;;;;;;;100.00;69.40;;;;;;;;;;5066450;28;20020;-73
2023/01/17 09:12:39;;;;;;;119.13;87.78;;;;;;;;;;5063505;28;20052;-73
2023/01/17 09:15:04;;;;;;;125.00;87.68;;;;;;;;;;5063492;28;20451;-72
2023/01/17 09:17:30;;;;;;;80.97;57.47;;;;;;;;;;5064689;28;20032;-71
2023/01/17 09:19:58;;;;;;;98.95;71.13;;;;;;;;;;5065271;28;20055;-72
2023/01/17 09:22:23;;;;;;;101.88;76.95;;;;;;;;;;5064409;28;20021;-73
2023/01/17 09:24:48;;;;;;;98.53;74.07;;;;;;;;;;5063450;28;20465;-72
2023/01/17 09:27:14;;;;;;;99.38;75.32;;;;;;;;;;5064342;28;20091;-71
2023/01/17 09:29:39;;;;;;;192.82;141.10;;;;;;;;;;5063905;28;20027;-74
2023/01/17 09:32:04;;;;;;;254.23;188.05;;;;;;;;;;5064829;28;20025;-72
2023/01/17 09:34:30;;;;;;;312.83;237.18;;;;;;;;;;5064326;28;20029;-72
2023/01/17 09:36:55;;;;;;;246.27;201.80;;;;;;;;;;5064069;28;20081;-72
2023/01/17 09:39:21;;;;;;;193.55;148.45;;;;;;;;;;5063827;28;20063;-71
2023/01/17 09:41:52;;;;;;;165.15;124.57;;;;;;;;;;5050551;28;20095;-72
2023/01/17 09:44:30;;;;;;;197.98;160.30;;;;;;;;;;5047967;28;20156;-72
2023/01/17 09:46:58;;;;;;;121.10;100.35;;;;;;;;;;5049577;28;20024;-75
2023/01/17 09:49:43;;;;;;;113.72;90.93;;;;;;;;;;5050629;28;20416;-73
2023/01/17 09:52:10;;;;;;;214.45;168.00;;;;;;;;;;5049076;28;20031;-74
2023/01/17 09:54:40;;;;;;;187.40;135.45;;;;;;;;;;5050450;28;20024;-73
2023/01/17 09:57:24;;;;;;;208.10;152.35;;;;;;;;;;5048345;28;20395;-73
2023/01/17 10:00:08;;;;;;;171.68;123.45;;;;;;;;;;5049086;28;20071;-72
2023/01/17 10:02:49;;;;;;;131.88;104.90;;;;;;;;;;5051795;28;20025;-73
2023/01/17 10:05:25;;;;;;;173.00;132.88;;;;;;;;;;5048017;28;20047;-74
2023/01/17 10:08:09;;;;;;;117.50;83.18;;;;;;;;;;5049357;28;20078;-74
2023/01/17 10:10:34;;;;;;;107.60;77.45;;;;;;;;;;5047891;28;20035;-73
2023/01/17 10:13:00;;;;;;;78.13;54.03;;;;;;;;;;5051216;28;20021;-72
2023/01/17 10:15:34;;;;;;;127.63;91.38;;;;;;;;;;5049732;28;20044;-72
2023/01/17 10:18:18;;;;;;;122.93;89.15;;;;;;;;;;5050502;28;20032;-73
2023/01/17 10:21:03;;;;;;;137.45;103.13;;;;;;;;;;5048633;28;20048;-72
2023/01/17 10:23:28;;;;;;;199.73;153.23;;;;;;;;;;5049748;28;20028;-73
2023/01/17 10:25:56;;;;;;;132.40;96.35;;;;;;;;;;5048935;28;20102;-73
2023/01/17 10:28:26;;;;;;;171.73;126.78;;;;;;;;;;5050046;28;20052;-73
2023/01/17 10:31:18;;;;;;;156.18;117.80;;;;;;;;;;5050393;28;20062;-75
2023/01/17 10:33:47;;;;;;;184.57;135.07;;;;;;;;;;5045669;28;20055;-73
2023/01/17 10:36:35;;;;;;;165.65;128.73;;;;;;;;;;5050264;28;20036;-74
2023/01/17 10:39:03;;;;;;;187.50;147.70;;;;;;;;;;5048568;28;20028;-75
2023/01/17 10:41:31;;;;;;;176.93;130.43;;;;;;;;;;5049745;28;20107;-72
2023/01/17 10:44:15;;;;;;;332.05;202.00;;;;;;;;;;5048782;28;20089;-75
2023/01/17 10:46:44;;;;;;;970.10;541.20;;;;;;;;;;5049122;28;20939;-73
2023/01/17 10:49:20;;;;;;;769.10;530.97;;;;;;;;;;5049071;28;20016;-75
2023/01/17 10:52:03;;;;;;;366.98;243.57;;;;;;;;;;5049062;28;20056;-72
2023/01/17 10:54:48;;;;;;;253.93;218.48;;;;;;;;;;5048583;28;20028;-71
2023/01/17 10:57:16;;;;;;;156.55;130.23;;;;;;;;;;5048233;28;20051;-72
2023/01/17 10:59:42;;;;;;;164.95;129.40;;;;;;;;;;5049997;28;20020;-73
2023/01/17 11:02:28;;;;;;;186.38;147.30;;;;;;;;;;5047494;28;20072;-76
2023/01/17 11:04:54;;;;;;;227.23;165.25;;;;;;;;;;5048576;28;20050;-73
2023/01/17 11:07:24;;;;;;;236.20;198.13;;;;;;;;;;5047935;28;20052;-73
2023/01/17 11:09:58;;;;;;;128.05;109.53;;;;;;;;;;5048172;28;20050;-71
2023/01/17 11:12:37;;;;;;;172.60;129.98;;;;;;;;;;5048483;28;20111;-75
2023/01/17 11:15:16;;;;;;;118.88;88.70;;;;;;;;;;5047344;28;20040;-73
2023/01/17 11:17:51;;;;;;;92.05;73.70;;;;;;;;;;5048509;28;21823;-72
2023/01/17 11:20:22;;;;;;;83.82;68.55;;;;;;;;;;5049235;28;20029;-71
2023/01/17 11:23:26;;;;;;;82.47;68.70;;;;;;;;;;5046849;28;20032;-73
2023/01/17 11:25:59;;;;;;;99.82;82.63;;;;;;;;;;5004323;28;20456;-74
2023/01/17 11:28:29;;;;;;;48.03;39.92;;;;;;;;;;5005960;28;20040;-73
2023/01/17 11:30:56;;;;;;;52.15;45.45;;;;;;;;;;5007078;28;20053;-73
2023/01/17 11:33:44;;;;;;;44.72;38.33;;;;;;;;;;5006150;28;20052;-73
2023/01/17 11:36:17;;;;;;;47.15;40.40;;;;;;;;;;4997994;28;20049;-72
2023/01/17 11:38:53;;;;;;;37.15;33.25;;;;;;;;;;5006572;28;20055;-73
2023/01/17 11:41:19;;;;;;;51.08;44.38;;;;;;;;;;5007802;28;20433;-71
2023/01/17 11:43:51;;;;;;;54.45;45.00;;;;;;;;;;5006290;28;20033;-72
2023/01/17 11:46:17;;;;;;;34.63;30.13;;;;;;;;;;5006878;28;20033;-76
2023/01/17 11:48:46;;;;;;;41.15;34.50;;;;;;;;;;5004911;28;20496;-72
2023/01/17 11:51:19;;;;;;;16.90;13.77;;;;;;;;;;4991039;28;20143;-72
2023/01/17 11:53:48;;;;;;;22.38;18.17;;;;;;;;;;5005987;28;20095;-77
2023/01/17 11:56:26;;;;;;;15.98;13.93;;;;;;;;;;5018953;28;20128;-71
2023/01/17 11:58:52;;;;;;;44.55;36.83;;;;;;;;;;5047327;28;20085;-74
2023/01/17 12:01:46;;;;;;;18.92;16.45;;;;;;;;;;5047809;28;20325;-74
2023/01/17 12:04:11;;;;;;;46.40;38.65;;;;;;;;;;5046342;28;20121;-72
2023/01/17 12:06:40;;;;;;;28.55;25.10;;;;;;;;;;5047644;28;20456;-76
2023/01/17 12:09:21;;;;;;;12.57;11.18;;;;;;;;;;5046736;28;20028;-73
2023/01/17 12:13:59;;;;;;;13.50;10.85;;;;;;;;;;5053964;28;20036;-73
2023/01/17 12:14:47;;;;;;;14.00;10.65;;;;;;;;;;5046575;28;20037;-76
2023/01/17 12:17:21;;;;;;;18.75;16.52;;;;;;;;;;5047752;28;20025;-72
2023/01/17 12:20:00;;;;;;;10.50;8.85;;;;;;;;;;5048196;28;20048;-72
2023/01/17 12:22:25;;;;;;;13.05;9.70;;;;;;;;;;5047835;28;20033;-73
2023/01/17 12:24:50;;;;;;;12.35;10.60;;;;;;;;;;5048590;28;20078;-72
2023/01/17 12:27:45;;;;;;;12.05;9.75;;;;;;;;;;5050296;28;20340;-72
2023/01/17 12:30:29;;;;;;;54.08;16.50;;;;;;;;;;5006358;28;20115;-72
2023/01/17 12:32:54;;;;;;;22.40;15.23;;;;;;;;;;5005833;28;20025;-71
2023/01/17 12:35:24;;;;;;;17.60;13.57;;;;;;;;;;5005905;28;20495;-76
2023/01/17 12:37:54;;;;;;;15.35;13.73;;;;;;;;;;5006166;28;20017;-71
2023/01/17 12:40:21;;;;;;;;;;;;;;;;;;5006585;28;20288;-73
2023/01/17 12:42:49;;;;;;;15.30;12.77;;;;;;;;;;5005696;28;19925;-74
2023/01/17 12:45:21;;;;;;;50.03;43.50;;;;;;;;;;5007419;28;20112;-72
2023/01/17 12:47:49;;;;;;;23.70;20.27;;;;;;;;;;5004911;28;20064;-72
2023/01/17 12:50:36;;;;;;;47.40;41.83;;;;;;;;;;4989615;28;20025;-75
2023/01/17 12:53:10;;;;;;;65.88;57.38;;;;;;;;;;5007387;28;20034;-77
2023/01/17 12:55:40;;;;;;;91.82;77.40;;;;;;;;;;5016402;28;20045;-73
2023/01/17 12:58:05;;;;;;;;;;;;;;;;;;5021116;28;20112;-72
2023/01/17 13:00:31;;;;;;;73.82;56.80;;;;;;;;;;5018757;28;19913;-76
2023/01/17 13:03:06;;;;;;;79.45;65.03;;;;;;;;;;5018742;28;20117;-72
2023/01/17 13:05:35;;;;;;;41.90;37.30;;;;;;;;;;5022144;28;20034;-71
2023/01/17 13:08:01;;;;;;;61.92;50.15;;;;;;;;;;5061224;28;20033;-74
2023/01/17 13:10:30;;;;;;;69.75;58.17;;;;;;;;;;5061641;28;20043;-73
2023/01/17 13:12:58;;;;;;;65.38;54.08;;;;;;;;;;5061176;28;20029;-73
2023/01/17 13:15:25;;;;;;;69.40;55.40;;;;;;;;;;5064941;28;20473;-72
2023/01/17 13:17:55;;;;;;;83.47;70.22;;;;;;;;;;5063703;28;20430;-73
2023/01/17 13:20:30;;;;;;;122.43;108.95;;;;;;;;;;5062765;28;20511;-73
2023/01/17 13:22:59;;;;;;;142.27;107.57;;;;;;;;;;5063764;28;20108;-72
2023/01/17 13:25:44;;;;;;;171.60;131.20;;;;;;;;;;5064072;28;20028;-75
2023/01/17 13:28:27;;;;;;;135.55;108.13;;;;;;;;;;5064986;28;20149;-74
2023/01/17 13:30:52;;;;;;;114.03;96.50;;;;;;;;;;5065105;28;20347;-74
2023/01/17 13:33:38;;;;;;;65.30;53.92;;;;;;;;;;5066072;28;20031;-73
2023/01/17 13:36:13;;;;;;;65.43;53.65;;;;;;;;;;5052685;28;20081;-74
2023/01/17 13:38:53;;;;;;;76.70;60.63;;;;;;;;;;5064580;28;20025;-73
2023/01/17 13:41:37;;;;;;;75.47;58.58;;;;;;;;;;5066238;28;20109;-73
2023/01/17 13:44:21;;;;;;;101.30;84.15;;;;;;;;;;5063669;28;20069;-73
2023/01/17 13:47:00;;;;;;;82.13;65.93;;;;;;;;;;5063463;28;20123;-73
2023/01/17 13:49:29;;;;;;;76.45;61.70;;;;;;;;;;5063609;28;20085;-72
2023/01/17 13:52:01;;;;;;;70.20;60.92;;;;;;;;;;5063122;28;20020;-75
2023/01/17 13:54:31;;;;;;;76.18;58.83;;;;;;;;;;5064415;28;20020;-72
2023/01/17 13:57:16;;;;;;;87.63;68.70;;;;;;;;;;5064617;28;20066;-73
2023/01/17 13:59:41;;;;;;;66.07;54.20;;;;;;;;;;5064685;28;20058;-73
2023/01/17 14:02:26;;;;;;;97.55;71.88;;;;;;;;;;5064875;28;20068;-73
2023/01/17 14:05:13;;;;;;;92.30;70.28;;;;;;;;;;5063738;28;20088;-73
2023/01/17 14:07:59;;;;;;;63.53;49.58;;;;;;;;;;5061336;28;20044;-76
2023/01/17 14:10:46;;;;;;;95.57;72.53;;;;;;;;;;5061991;28;20075;-74
2023/01/17 14:13:23;;;;;;;118.45;86.20;;;;;;;;;;5066318;28;20025;-72
2023/01/17 14:15:49;;;;;;;85.97;64.50;;;;;;;;;;5062911;28;20032;-73
2023/01/17 14:18:41;;;;;;;66.82;52.28;;;;;;;;;;5063366;28;20032;-73
2023/01/17 14:21:26;;;;;;;64.90;51.80;;;;;;;;;;5051580;28;20398;-72
2023/01/17 14:23:51;;;;;;;74.55;57.92;;;;;;;;;;5049926;28;20410;-73
2023/01/17 14:26:28;;;;;;;73.75;60.67;;;;;;;;;;5048507;28;20487;-75
2023/01/17 14:28:55;;;;;;;63.88;52.53;;;;;;;;;;5055524;28;20115;-78
2023/01/17 14:31:21;;;;;;;59.97;46.97;;;;;;;;;;5052960;28;20036;-74
2023/01/17 14:33:47;;;;;;;72.90;59.70;;;;;;;;;;5060686;28;20460;-75
2023/01/17 14:36:23;;;;;;;121.70;98.75;;;;;;;;;;5061703;28;20071;-74
2023/01/17 14:38:49;;;;;;;80.05;63.88;;;;;;;;;;5061144;28;20074;-78
2023/01/17 14:41:20;;;;;;;77.72;59.97;;;;;;;;;;5062089;28;20447;-75
2023/01/17 14:43:45;;;;;;;75.13;59.78;;;;;;;;;;5065112;28;20364;-75
2023/01/17 14:46:16;;;;;;;63.53;52.90;;;;;;;;;;5062927;28;20028;-75
2023/01/17 14:48:41;;;;;;;75.38;59.60;;;;;;;;;;5064761;28;20020;-75
2023/01/17 14:51:11;;;;;;;76.63;60.13;;;;;;;;;;5053470;28;20028;-72
2023/01/17 14:53:37;;;;;;;74.22;57.92;;;;;;;;;;5052418;28;20052;-76
2023/01/17 14:56:11;;;;;;;71.07;57.55;;;;;;;;;;5059115;28;20082;-76
2023/01/17 14:58:38;;;;;;;59.90;49.30;;;;;;;;;;5050908;28;20477;-74
2023/01/17 15:01:11;;;;;;;56.88;44.97;;;;;;;;;;5049066;28;20038;-75
2023/01/17 15:03:42;;;;;;;59.83;46.65;;;;;;;;;;5062009;28;20020;-76
2023/01/17 15:06:18;;;;;;;70.18;55.45;;;;;;;;;;5050716;28;20375;-74
2023/01/17 15:08:44;;;;;;;69.00;54.15;;;;;;;;;;5052602;28;20519;-73
2023/01/17 15:11:15;;;;;;;67.78;52.08;;;;;;;;;;5054140;28;20029;-76
2023/01/17 15:13:43;;;;;;;69.90;53.08;;;;;;;;;;5052021;28;20031;-74
2023/01/17 15:16:25;;;;;;;64.80;48.85;;;;;;;;;;5062588;28;21020;-74
2023/01/17 15:18:51;;;;;;;82.22;57.10;;;;;;;;;;5060396;28;20344;-76
2023/01/17 15:21:19;;;;;;;66.32;49.50;;;;;;;;;;5042475;28;20478;-75
2023/01/17 15:23:52;;;;;;;75.38;57.17;;;;;;;;;;5049162;28;20025;-75
2023/01/17 15:26:20;;;;;;;70.20;53.35;;;;;;;;;;5042937;28;20114;-76
2023/01/17 15:28:45;;;;;;;70.30;54.55;;;;;;;;;;5049029;28;20341;-74
2023/01/17 15:31:13;;;;;;;141.10;105.90;;;;;;;;;;5058989;28;20017;-74
2023/01/17 15:33:41;;;;;;;145.90;113.80;;;;;;;;;;5062210;28;20032;-75
2023/01/17 15:36:13;;;;;;;99.75;79.85;;;;;;;;;;5063273;28;20098;-75
2023/01/17 15:38:39;;;;;;;94.15;74.43;;;;;;;;;;5061835;28;20031;-74
2023/01/17 15:41:12;;;;;;;101.13;86.85;;;;;;;;;;5061560;28;20459;-74
2023/01/17 15:43:38;;;;;;;80.38;64.15;;;;;;;;;;5058287;28;20097;-75
2023/01/17 15:46:04;;;;;;;86.43;71.80;;;;;;;;;;5052707;28;20040;-75